Nyala, Nevada Weather observations

Data are for observation ending at time listed.
 Day   Time    Ave.   Ave.  Ave.  Vector   Max.   Stn.    Total    Solar   Ave.  
  of    of     Air    Rel.  Wind   Wind    Wind   Baro.  Precip.   Rad.    Soil  
Year   Day     Temp.  Hum.  Speed  Dir.    Gust   Pres.                    Temp. 
2014   (PST)    F      %     mph   deg.    mph     mb.     in.     W/m2     F   
------------------------------------------------------------------------------
 274    2:00   55.7    53    8.3    18     17.4    850     0.00       0    63.7
 274    3:00   52.6    56    8.7    23     15.2    851     0.00       0    63.2
 274    4:00   51.0    54    6.1    42     15.1    851     0.00       0    62.5
 274    5:00   49.1    54    3.7    31      8.3    852     0.00       0    61.8
 274    6:00   46.7    55    5.0    23      8.6    853     0.00       1    61.0
 274    7:00   48.7    46    6.5    23     11.2    854     0.00      54    60.2
 274    8:00   52.2    38    9.7    17     16.7    854     0.00     146    59.6
 274    9:00   54.3    33   10.7    17     18.9    855     0.00     229    59.5
 274   10:00   56.5    29   10.1    14     20.2    855     0.00     294    59.7
 274   11:00   58.7    26    7.6    16     16.2    855     0.00     335    60.0
 274   12:00   61.5    22    7.0    12     17.7    854     0.00     352    60.8
 274   13:00   63.3    17    6.5    11     18.0    854     0.00     341    63.2
 274   14:00   64.5    15    5.1    12     14.4    854     0.00     302    66.3
 274   15:00   64.3    16    6.3    18     15.8    854     0.00     238    67.9
 274   16:00   64.0    16    5.9    23     12.9    854     0.00     157    67.3
 274   17:00   63.1    16    5.3    21     12.6    854     0.00      69    66.6
 274   18:00   58.9    19    3.8    31      8.1    854     0.00       5    66.4
 274   19:00   55.9    22    4.1    56      6.6    854     0.00       0    65.7
 274   20:00   55.4    23    4.9    54      8.4    855     0.00       0    64.7
 274   21:00   51.7    28    2.2    29      6.1    856     0.00       0    63.8
 274   22:00   47.1    35    1.9    75      5.4    856     0.00       0    62.9
 274   23:00   48.7    33    1.8    30      6.6    856     0.00       0    61.9
 275    0:00   40.8    50    1.9   197      7.7    857     0.00       0    61.0
 275    1:00   39.8    52    2.6   173      8.0    857     0.00       0    60.0

Return to Nyala, Nevada graphs page.


Western Regional Climate Center,wrcc@dri.edu